Time;durP1;ratioP1;P1;durP2;ratioP2;P2;SDS_P1;SDS_P2;PMS_P1;PMS_P2;Temp;Humidity;BMP_temperature;BMP_pressure;BME280_temperature;BME280_humidity;BME280_pressure;Samples;Min_cycle;Max_cycle;Signal;HPM_P1;HPM_P2
2023/01/07 13:19:09;;;;;;;10.73;5.65;;;18.40;56.30;;;;;;5108059;27;20545;-73
2023/01/07 13:21:37;;;;;;;14.30;6.68;;;18.60;55.70;;;;;;5108615;28;20237;-73
2023/01/07 13:24:21;;;;;;;8.65;5.05;;;18.60;55.40;;;;;;5083975;28;20199;-73
2023/01/07 13:26:57;;;;;;;12.50;5.28;;;18.70;55.50;;;;;;5080637;28;20186;-73
2023/01/07 13:29:45;;;;;;;8.35;4.20;;;18.70;55.40;;;;;;5080679;28;20239;-73
2023/01/07 13:32:45;;;;;;;8.95;3.25;;;18.60;55.40;;;;;;5088847;28;20229;-73
2023/01/07 13:35:33;;;;;;;5.95;3.20;;;18.60;55.50;;;;;;5073952;28;20286;-73
2023/01/07 13:38:22;;;;;;;5.97;3.10;;;18.60;55.60;;;;;;5073379;28;20318;-72
2023/01/07 13:41:16;;;;;;;6.32;2.80;;;18.70;55.70;;;;;;5078851;28;20259;-74
2023/01/07 13:44:05;;;;;;;7.03;2.97;;;18.60;55.60;;;;;;5082704;28;20216;-73
2023/01/07 13:46:35;;;;;;;6.10;2.65;;;18.70;55.70;;;;;;5088494;28;20350;-73
2023/01/07 13:49:02;;;;;;;7.82;2.72;;;18.70;55.70;;;;;;5082289;28;20222;-73
2023/01/07 13:51:33;;;;;;;5.75;2.97;;;18.60;55.60;;;;;;5088184;28;20190;-74
2023/01/07 13:54:00;;;;;;;5.03;2.95;;;18.60;55.60;;;;;;5086910;28;20872;-74
2023/01/07 13:56:38;;;;;;;7.22;2.55;;;18.60;55.70;;;;;;5082809;28;20199;-72
2023/01/07 13:59:30;;;;;;;6.72;2.78;;;18.60;55.70;;;;;;5080266;28;20230;-73
2023/01/07 14:02:18;;;;;;;7.63;3.28;;;18.60;55.70;;;;;;5074296;28;20237;-74
2023/01/07 14:04:51;;;;;;;5.60;2.70;;;18.60;55.70;;;;;;5078126;28;20195;-73
2023/01/07 14:07:20;;;;;;;6.30;2.88;;;18.60;55.80;;;;;;5086666;28;20295;-72
2023/01/07 14:09:47;;;;;;;5.95;2.38;;;18.60;55.80;;;;;;5087372;28;20443;-74
2023/01/07 14:12:48;;;;;;;5.57;2.28;;;18.60;55.80;;;;;;5087494;28;20218;-74
2023/01/07 14:15:38;;;;;;;5.55;2.58;;;18.60;55.80;;;;;;5086710;28;20259;-73
2023/01/07 14:18:26;;;;;;;5.78;2.50;;;18.60;55.90;;;;;;5083813;28;20238;-73
2023/01/07 14:21:01;;;;;;;7.45;2.83;;;18.60;55.90;;;;;;5074252;28;20194;-73
2023/01/07 14:23:38;;;;;;;5.00;2.17;;;18.60;55.90;;;;;;5086901;28;20698;-73
2023/01/07 14:26:20;;;;;;;6.65;2.72;;;18.60;56.00;;;;;;5086703;28;20186;-73
2023/01/07 14:29:30;;;;;;;7.15;2.35;;;18.60;56.00;;;;;;5073944;28;20245;-74
2023/01/07 14:32:22;;;;;;;9.55;2.65;;;18.70;56.50;;;;;;5061173;28;21058;-76
2023/01/07 14:34:55;;;;;;;8.07;3.00;;;19.90;53.90;;;;;;5070576;28;20448;-77
2023/01/07 14:37:31;;;;;;;9.88;2.65;;;19.80;53.30;;;;;;5072222;28;20226;-69
2023/01/07 14:40:02;;;;;;;6.57;2.67;;;19.40;54.20;;;;;;5074052;28;20194;-70
2023/01/07 14:42:47;;;;;;;7.28;2.15;;;19.10;54.80;;;;;;5061930;28;20227;-70
2023/01/07 14:45:58;;;;;;;4.53;2.35;;;19.00;55.40;;;;;;5071023;28;20198;-78
2023/01/07 14:48:33;;;;;;;8.57;2.78;;;18.90;55.60;;;;;;5064822;28;20450;-77
2023/01/07 14:51:42;;;;;;;9.80;2.28;;;19.00;55.70;;;;;;5072939;28;20568;-77
2023/01/07 14:54:51;;;;;;;6.80;2.70;;;19.00;55.70;;;;;;5057719;28;20592;-75
2023/01/07 14:57:31;;;;;;;21.00;2.58;;;19.00;55.80;;;;;;5066324;28;20222;-75
2023/01/07 15:00:37;;;;;;;7.50;2.78;;;19.00;55.90;;;;;;5072788;28;20252;-75
2023/01/07 15:03:37;;;;;;;10.57;2.92;;;19.00;56.00;;;;;;5072515;28;20279;-75
2023/01/07 15:06:15;;;;;;;6.28;2.78;;;19.00;56.00;;;;;;5068627;28;20214;-76
2023/01/07 15:17:14;;;;;;;6.15;2.53;;;19.00;56.20;;;;;;5071849;28;20235;-78
2023/01/07 15:19:42;;;;;;;6.90;2.10;;;19.00;56.20;;;;;;5066454;28;20217;-78
2023/01/07 15:22:27;;;;;;;6.05;2.25;;;19.00;56.00;;;;;;5069066;28;20575;-78
2023/01/07 15:25:03;;;;;;;9.68;2.33;;;19.00;56.20;;;;;;5059772;28;20966;-75
2023/01/07 15:27:38;;;;;;;8.52;2.30;;;19.00;56.00;;;;;;5070052;28;20229;-76
2023/01/07 15:30:19;;;;;;;7.45;2.83;;;19.00;56.10;;;;;;5068741;28;20194;-76
2023/01/07 15:32:53;;;;;;;7.07;2.70;;;19.10;56.00;;;;;;5062602;28;20592;-77
2023/01/07 15:35:25;;;;;;;11.30;2.20;;;19.10;55.90;;;;;;5064226;28;20203;-79
2023/01/07 15:37:53;;;;;;;10.07;2.78;;;19.10;56.10;;;;;;5057048;28;20215;-77
2023/01/07 15:40:24;;;;;;;14.88;2.75;;;19.10;55.90;;;;;;5060727;28;20207;-78
2023/01/07 15:42:53;;;;;;;11.27;3.47;;;19.10;55.90;;;;;;5067010;28;20226;-77
2023/01/07 15:45:25;;;;;;;7.60;2.72;;;19.10;55.80;;;;;;5063710;28;20201;-77
2023/01/07 15:48:04;;;;;;;6.25;2.60;;;19.10;55.90;;;;;;5062863;28;20230;-77
2023/01/07 15:50:33;;;;;;;6.93;2.40;;;19.10;56.00;;;;;;5068235;28;20220;-78
2023/01/07 15:53:02;;;;;;;9.35;2.70;;;19.10;56.00;;;;;;5068781;28;20218;-77
2023/01/07 15:55:33;;;;;;;7.25;3.20;;;19.10;56.10;;;;;;5062751;28;20214;-77
2023/01/07 15:58:24;;;;;;;9.20;2.75;;;19.10;56.10;;;;;;5066291;28;20229;-76
2023/01/07 16:00:55;;;;;;;6.72;2.80;;;19.10;56.10;;;;;;5060182;28;20424;-76
2023/01/07 16:03:23;;;;;;;7.80;2.95;;;19.10;56.80;;;;;;5067769;28;20226;-77
2023/01/07 16:05:51;;;;;;;11.35;2.83;;;19.10;56.30;;;;;;5070029;28;20210;-76
2023/01/07 16:08:23;;;;;;;10.85;2.95;;;19.10;56.30;;;;;;5067172;28;20246;-76
2023/01/07 16:11:01;;;;;;;7.00;2.30;;;19.10;56.20;;;;;;5067092;28;20203;-76
2023/01/07 16:13:30;;;;;;;8.52;2.35;;;19.00;56.80;;;;;;5070064;28;20305;-76
2023/01/07 16:16:02;;;;;;;7.75;2.42;;;19.10;56.30;;;;;;5063706;28;20204;-76
2023/01/07 16:18:31;;;;;;;8.90;2.65;;;19.00;56.30;;;;;;5062600;28;20241;-76
2023/01/07 16:21:01;;;;;;;7.65;2.47;;;19.00;56.30;;;;;;5067289;28;20249;-79
2023/01/07 16:43:01;;;;;;;9.07;2.40;;;20.50;53.20;;;;;;5087150;27;1441155;-68
2023/01/07 16:45:31;;;;;;;5.82;2.33;;;20.40;54.00;;;;;;5101464;28;20193;-68
2023/01/07 16:48:17;;;;;;;7.22;2.20;;;20.20;53.90;;;;;;5086062;28;20222;-68
